Time;durP1;ratioP1;P1;durP2;ratioP2;P2;SDS_P1;SDS_P2;PMS_P1;PMS_P2;Temp;Humidity;BMP_temperature;BMP_pressure;BME280_temperature;BME280_humidity;BME280_pressure;Samples;Min_cycle;Max_cycle;Signal;HPM_P1;HPM_P2
2024/01/26 00:00:52;;;;;;;15.23;10.50;;;12.90;99.90;;;;;;7287478;19;20193;-78
2024/01/26 00:03:17;;;;;;;15.57;11.27;;;12.80;99.90;;;;;;7287622;19;20220;-77
2024/01/26 00:05:43;;;;;;;17.70;11.23;;;12.70;99.90;;;;;;7310410;19;20193;-78
2024/01/26 00:08:10;;;;;;;16.50;11.67;;;12.70;99.90;;;;;;7287614;19;20185;-79
2024/01/26 00:10:35;;;;;;;16.60;11.10;;;12.70;99.90;;;;;;7287060;19;20209;-78
2024/01/26 00:13:02;;;;;;;16.27;10.97;;;12.70;99.90;;;;;;7287634;19;20203;-78
2024/01/26 00:15:27;;;;;;;17.10;10.13;;;12.80;99.90;;;;;;7288063;19;20193;-78
2024/01/26 00:17:53;;;;;;;14.33;9.13;;;12.80;99.90;;;;;;7288344;19;20189;-78
2024/01/26 00:20:19;;;;;;;14.80;8.87;;;12.70;99.90;;;;;;7286946;19;20674;-78
2024/01/26 00:22:45;;;;;;;13.73;9.10;;;12.60;99.90;;;;;;7309402;19;20234;-78
2024/01/26 00:25:11;;;;;;;15.07;8.37;;;12.60;99.90;;;;;;7287698;19;20181;-79
2024/01/26 00:27:37;;;;;;;13.33;7.77;;;12.60;99.90;;;;;;7286205;19;20718;-78
2024/01/26 00:30:03;;;;;;;11.37;7.03;;;12.60;99.90;;;;;;7286627;19;20193;-78
2024/01/26 00:32:29;;;;;;;12.53;6.93;;;12.60;99.90;;;;;;7287442;19;20567;-78
2024/01/26 00:34:55;;;;;;;10.93;6.90;;;12.60;99.90;;;;;;7285885;19;20194;-78
2024/01/26 00:37:20;;;;;;;11.13;6.73;;;12.70;99.90;;;;;;7286968;19;20196;-78
2024/01/26 00:39:46;;;;;;;11.13;6.90;;;12.70;99.90;;;;;;7291943;19;20331;-78
2024/01/26 00:42:12;;;;;;;12.30;6.87;;;12.80;99.90;;;;;;7307589;19;20196;-78
2024/01/26 00:44:37;;;;;;;14.77;6.80;;;12.80;99.90;;;;;;7286485;19;20193;-78
2024/01/26 00:47:03;;;;;;;13.83;6.63;;;12.90;99.90;;;;;;7285640;19;20657;-78
2024/01/26 00:49:29;;;;;;;11.23;6.00;;;12.80;99.90;;;;;;7284901;19;20200;-79
2024/01/26 00:51:55;;;;;;;11.53;6.57;;;12.80;99.90;;;;;;7285749;19;20641;-79
2024/01/26 00:54:21;;;;;;;13.67;6.97;;;12.70;99.90;;;;;;7285121;19;20216;-79
2024/01/26 00:56:47;;;;;;;15.67;6.60;;;12.80;99.90;;;;;;7285666;19;20197;-79
2024/01/26 00:59:12;;;;;;;10.50;6.47;;;12.70;99.90;;;;;;7304607;19;20286;-79
2024/01/26 01:01:38;;;;;;;10.23;6.03;;;12.70;99.90;;;;;;7286825;19;20219;-79
2024/01/26 01:04:05;;;;;;;10.90;6.63;;;12.70;99.90;;;;;;7284589;19;20204;-79
2024/01/26 01:06:31;;;;;;;13.17;6.83;;;12.70;99.90;;;;;;7285428;19;20206;-79
2024/01/26 01:08:57;;;;;;;11.77;6.40;;;12.70;99.90;;;;;;7284227;19;20526;-79
2024/01/26 01:11:22;;;;;;;13.60;6.87;;;12.60;99.90;;;;;;7284047;19;20197;-79
2024/01/26 01:13:48;;;;;;;13.73;7.30;;;12.60;99.90;;;;;;7285472;19;20217;-79
2024/01/26 01:16:15;;;;;;;12.70;6.90;;;12.60;99.90;;;;;;7308035;19;20195;-79
2024/01/26 01:18:41;;;;;;;13.93;7.13;;;12.50;99.90;;;;;;7284784;19;20189;-79
2024/01/26 01:21:07;;;;;;;14.63;7.20;;;12.50;99.90;;;;;;7285694;19;20188;-78
2024/01/26 01:23:33;;;;;;;13.70;7.20;;;12.40;99.90;;;;;;7284885;19;20193;-78
2024/01/26 01:25:59;;;;;;;11.53;6.90;;;12.40;99.90;;;;;;7284693;19;20531;-79
2024/01/26 01:28:24;;;;;;;13.17;6.73;;;12.50;99.90;;;;;;7283888;19;20232;-79
2024/01/26 01:30:50;;;;;;;12.43;6.83;;;12.50;99.90;;;;;;7283047;19;20193;-78
2024/01/26 01:33:16;;;;;;;14.67;7.17;;;12.60;99.90;;;;;;7294973;19;20973;-79
2024/01/26 01:35:41;;;;;;;14.83;7.10;;;12.60;99.90;;;;;;7300627;19;20193;-79
2024/01/26 01:38:07;;;;;;;13.97;7.57;;;12.70;99.90;;;;;;7281062;19;20188;-78
2024/01/26 01:40:33;;;;;;;15.47;7.70;;;12.80;99.90;;;;;;7283188;19;20209;-78
2024/01/26 01:42:59;;;;;;;15.47;7.10;;;12.80;99.90;;;;;;7284148;19;20199;-79
2024/01/26 01:45:24;;;;;;;16.50;7.70;;;12.80;99.90;;;;;;7283776;19;20190;-78
2024/01/26 01:47:50;;;;;;;14.40;7.80;;;12.90;99.90;;;;;;7282361;19;20199;-78
2024/01/26 01:50:16;;;;;;;15.27;8.30;;;12.90;99.90;;;;;;7295747;19;20192;-78
2024/01/26 01:52:43;;;;;;;14.83;7.90;;;12.80;99.90;;;;;;7304016;19;20195;-78
2024/01/26 01:55:10;;;;;;;14.20;7.70;;;12.70;99.90;;;;;;7283410;19;20193;-78
2024/01/26 01:57:42;;;;;;;14.70;7.90;;;12.70;99.90;;;;;;7284934;19;20193;-78
2024/01/26 02:00:15;;;;;;;14.93;8.33;;;12.50;99.90;;;;;;7284154;19;20196;-78
2024/01/26 02:02:45;;;;;;;18.50;8.77;;;12.60;99.90;;;;;;7285425;19;20306;-78
2024/01/26 02:05:12;;;;;;;16.10;9.00;;;12.50;99.90;;;;;;7283053;19;20193;-79
2024/01/26 02:07:39;;;;;;;15.17;8.80;;;12.60;99.90;;;;;;7283447;19;20220;-79
2024/01/26 02:10:07;;;;;;;16.10;8.47;;;12.50;99.90;;;;;;7283416;19;20877;-78
2024/01/26 02:12:33;;;;;;;16.43;9.00;;;12.40;99.90;;;;;;7283798;19;20249;-78
2024/01/26 02:15:00;;;;;;;14.70;9.17;;;12.30;99.90;;;;;;7283669;19;20201;-78
2024/01/26 02:17:33;;;;;;;15.73;8.83;;;12.30;99.90;;;;;;7282983;19;20201;-79
2024/01/26 02:20:00;;;;;;;17.53;9.63;;;12.20;99.90;;;;;;7285149;19;20202;-79
2024/01/26 02:22:26;;;;;;;16.40;9.00;;;12.10;99.90;;;;;;7284249;19;20652;-79
2024/01/26 02:24:51;;;;;;;15.40;8.97;;;12.10;99.90;;;;;;7283097;19;20198;-78
2024/01/26 02:27:20;;;;;;;19.90;9.50;;;12.10;99.90;;;;;;7283350;19;20200;-79
2024/01/26 02:29:46;;;;;;;18.13;8.63;;;12.20;99.90;;;;;;7297532;19;20200;-78
2024/01/26 02:32:12;;;;;;;16.57;9.13;;;12.10;99.90;;;;;;7299713;19;20197;-78
2024/01/26 02:34:38;;;;;;;14.20;8.93;;;12.00;99.90;;;;;;7283207;19;20205;-79
2024/01/26 02:37:03;;;;;;;14.43;8.40;;;11.90;99.90;;;;;;7282274;19;20193;-79
2024/01/26 02:39:29;;;;;;;19.10;9.60;;;11.90;99.90;;;;;;7281831;19;20192;-79
2024/01/26 02:41:55;;;;;;;15.67;8.73;;;11.90;99.90;;;;;;7280981;19;20546;-78
2024/01/26 02:44:22;;;;;;;16.70;8.77;;;11.90;99.90;;;;;;7281754;19;20293;-79
2024/01/26 02:46:48;;;;;;;15.33;9.00;;;11.90;99.90;;;;;;7282485;19;20195;-79
2024/01/26 02:49:14;;;;;;;16.50;8.77;;;11.90;99.90;;;;;;7303647;19;20192;-79
2024/01/26 02:51:40;;;;;;;16.40;9.27;;;11.90;99.90;;;;;;7283389;19;20675;-79
2024/01/26 02:54:05;;;;;;;15.30;9.03;;;11.90;99.90;;;;;;7283680;19;20203;-79
2024/01/26 02:56:31;;;;;;;14.40;8.73;;;12.00;99.90;;;;;;7282004;19;20193;-79
2024/01/26 02:58:57;;;;;;;15.53;9.50;;;12.10;99.90;;;;;;7280901;19;20578;-77
2024/01/26 03:01:22;;;;;;;15.43;9.10;;;12.10;99.90;;;;;;7281635;19;20196;-78
2024/01/26 03:03:48;;;;;;;15.70;9.37;;;12.10;99.90;;;;;;7280766;19;20197;-78
2024/01/26 03:06:14;;;;;;;16.47;9.77;;;12.10;99.90;;;;;;7304153;19;20265;-78
2024/01/26 03:08:40;;;;;;;17.80;9.60;;;12.10;99.90;;;;;;7282164;19;20183;-78
2024/01/26 03:11:06;;;;;;;16.27;9.47;;;12.20;99.90;;;;;;7281823;19;20229;-79
2024/01/26 03:13:31;;;;;;;13.97;9.10;;;12.20;99.90;;;;;;7282325;19;20185;-79
2024/01/26 03:15:57;;;;;;;16.93;10.17;;;12.30;99.90;;;;;;7283140;19;20660;-79
2024/01/26 03:18:23;;;;;;;19.03;10.00;;;12.20;99.90;;;;;;7281084;19;20191;-79
2024/01/26 03:20:48;;;;;;;16.27;10.37;;;12.20;99.90;;;;;;7280484;19;20253;-78
2024/01/26 03:23:14;;;;;;;19.77;12.00;;;12.20;99.90;;;;;;7303778;19;20186;-78
2024/01/26 03:25:40;;;;;;;22.53;11.50;;;12.20;99.90;;;;;;7280822;19;20181;-78
2024/01/26 03:28:07;;;;;;;17.67;11.27;;;12.20;99.90;;;;;;7285055;19;20193;-78
2024/01/26 03:30:34;;;;;;;19.47;12.20;;;12.20;99.90;;;;;;7289977;19;20192;-78
2024/01/26 03:32:59;;;;;;;20.83;12.90;;;12.30;99.90;;;;;;7290013;19;20185;-78
2024/01/26 03:35:26;;;;;;;22.53;12.50;;;12.30;99.90;;;;;;7290162;19;20196;-78
2024/01/26 03:37:52;;;;;;;17.60;11.13;;;12.40;99.90;;;;;;7288653;19;20193;-78
2024/01/26 03:40:17;;;;;;;18.93;10.93;;;12.40;99.90;;;;;;7288414;19;20544;-78
2024/01/26 03:42:44;;;;;;;17.20;10.40;;;12.40;99.90;;;;;;7310236;19;20189;-78
2024/01/26 03:45:10;;;;;;;17.47;10.80;;;12.30;99.90;;;;;;7287472;19;20213;-78
2024/01/26 03:47:35;;;;;;;22.73;9.80;;;12.30;99.90;;;;;;7287233;19;20193;-78
2024/01/26 03:50:01;;;;;;;16.40;10.60;;;12.30;99.90;;;;;;7287198;19;20199;-78
2024/01/26 03:52:27;;;;;;;17.90;11.57;;;12.40;99.90;;;;;;7287794;19;20613;-78
2024/01/26 03:54:53;;;;;;;18.73;12.00;;;12.40;99.90;;;;;;7288060;19;20193;-78
2024/01/26 03:57:19;;;;;;;19.47;12.70;;;12.30;99.90;;;;;;7286882;19;20188;-78
2024/01/26 03:59:44;;;;;;;19.27;12.77;;;12.20;99.90;;;;;;7310738;19;20563;-78
2024/01/26 04:02:11;;;;;;;20.10;13.10;;;12.20;99.90;;;;;;7286624;19;20197;-79
2024/01/26 04:04:37;;;;;;;21.90;13.03;;;12.30;99.90;;;;;;7287281;19;20189;-78
2024/01/26 04:07:03;;;;;;;24.07;14.63;;;12.30;99.90;;;;;;7286175;19;20218;-78
2024/01/26 04:09:28;;;;;;;21.93;14.07;;;12.30;99.90;;;;;;7287616;19;20200;-78
2024/01/26 04:11:54;;;;;;;23.50;14.20;;;12.20;99.90;;;;;;7287884;19;20188;-78
2024/01/26 04:14:20;;;;;;;21.97;14.20;;;12.30;99.90;;;;;;7287507;19;20202;-77
2024/01/26 04:16:45;;;;;;;22.00;13.90;;;12.40;99.90;;;;;;7307772;19;20214;-78
2024/01/26 04:19:11;;;;;;;22.00;13.20;;;12.40;99.90;;;;;;7295728;19;20624;-78
2024/01/26 04:21:37;;;;;;;23.10;13.40;;;12.40;99.90;;;;;;7287773;19;20201;-78
2024/01/26 04:24:03;;;;;;;19.17;11.90;;;12.40;99.90;;;;;;7285849;19;20237;-78
2024/01/26 04:26:28;;;;;;;23.60;13.53;;;12.50;99.90;;;;;;7286651;19;20197;-79
2024/01/26 04:28:54;;;;;;;20.93;13.10;;;12.40;99.90;;;;;;7287726;19;20194;-78
2024/01/26 04:31:22;;;;;;;23.43;13.70;;;12.50;99.90;;;;;;7287189;19;20193;-78
2024/01/26 04:33:48;;;;;;;20.93;12.70;;;12.50;99.90;;;;;;7288116;19;22013;-78
2024/01/26 04:36:14;;;;;;;19.57;12.30;;;12.50;99.90;;;;;;7308375;19;20712;-78
2024/01/26 04:38:39;;;;;;;20.73;11.57;;;12.40;99.90;;;;;;7286143;19;20230;-78
2024/01/26 04:41:05;;;;;;;17.63;9.90;;;12.50;99.90;;;;;;7286257;19;20196;-78
2024/01/26 04:43:31;;;;;;;18.40;10.43;;;12.50;99.90;;;;;;7285909;19;21597;-78
2024/01/26 04:45:56;;;;;;;16.37;10.27;;;12.50;99.90;;;;;;7285590;19;20187;-78
2024/01/26 04:48:22;;;;;;;21.73;10.17;;;12.60;99.90;;;;;;7285466;19;20229;-78
2024/01/26 04:50:48;;;;;;;18.30;10.43;;;12.60;99.90;;;;;;7284324;19;20726;-78
2024/01/26 04:53:15;;;;;;;20.40;10.23;;;12.60;99.90;;;;;;7306950;19;20318;-78
2024/01/26 04:55:41;;;;;;;17.83;10.00;;;12.60;99.90;;;;;;7285951;19;20189;-78
2024/01/26 04:58:06;;;;;;;15.87;10.03;;;12.60;99.90;;;;;;7284367;19;20263;-79
2024/01/26 05:00:32;;;;;;;17.87;10.40;;;12.60;99.90;;;;;;7285171;19;20546;-79
2024/01/26 05:02:58;;;;;;;16.53;10.30;;;12.50;99.90;;;;;;7285400;19;20318;-78
2024/01/26 05:05:24;;;;;;;17.23;10.47;;;12.50;99.90;;;;;;7286069;19;20723;-78
2024/01/26 05:07:50;;;;;;;18.57;11.43;;;12.50;99.90;;;;;;7285659;19;20273;-78
2024/01/26 05:10:15;;;;;;;23.70;11.20;;;12.40;99.90;;;;;;7307435;19;20215;-78
2024/01/26 05:12:41;;;;;;;18.13;11.00;;;12.40;99.90;;;;;;7287513;19;20200;-78
2024/01/26 05:15:11;;;;;;;17.93;12.27;;;12.40;99.90;;;;;;7283499;19;21037;-77
2024/01/26 05:17:37;;;;;;;21.67;12.40;;;12.40;99.90;;;;;;7285416;19;20203;-79
2024/01/26 05:20:07;;;;;;;20.63;12.17;;;12.30;99.90;;;;;;7285619;19;20188;-78
2024/01/26 05:22:32;;;;;;;20.60;12.93;;;12.30;99.90;;;;;;7285140;19;20200;-80
2024/01/26 05:24:58;;;;;;;21.00;12.53;;;12.30;99.90;;;;;;7285035;19;20201;-79
2024/01/26 05:27:24;;;;;;;21.93;13.57;;;12.20;99.90;;;;;;7284428;19;20201;-79
2024/01/26 05:29:49;;;;;;;21.33;12.37;;;12.20;99.90;;;;;;7284832;19;20190;-79
2024/01/26 05:32:15;;;;;;;23.20;13.73;;;12.20;99.90;;;;;;7306062;19;20190;-79
2024/01/26 05:34:41;;;;;;;21.40;13.13;;;12.10;99.90;;;;;;7284767;19;20202;-79
2024/01/26 05:37:06;;;;;;;28.37;14.57;;;12.10;99.90;;;;;;7285980;19;20179;-78
2024/01/26 05:39:32;;;;;;;26.10;14.83;;;12.10;99.90;;;;;;7281633;19;20256;-78
2024/01/26 05:41:58;;;;;;;22.33;14.80;;;12.10;99.90;;;;;;7285263;19;20524;-78
2024/01/26 05:44:24;;;;;;;25.43;15.00;;;12.20;99.90;;;;;;7285647;19;20193;-79
2024/01/26 05:46:50;;;;;;;26.20;15.07;;;12.20;99.90;;;;;;7284756;19;20201;-79
2024/01/26 05:49:15;;;;;;;23.23;15.17;;;12.20;99.90;;;;;;7306990;19;20202;-79
2024/01/26 05:51:41;;;;;;;29.23;15.23;;;12.20;99.90;;;;;;7284028;19;20197;-78
2024/01/26 05:54:07;;;;;;;26.97;15.00;;;12.20;99.90;;;;;;7285011;19;20199;-78
2024/01/26 05:56:33;;;;;;;26.40;15.10;;;12.20;99.90;;;;;;7286040;19;20208;-78
2024/01/26 05:58:58;;;;;;;27.47;15.90;;;12.20;99.90;;;;;;7285661;19;20555;-79
2024/01/26 06:01:24;;;;;;;29.23;15.47;;;12.20;99.90;;;;;;7284300;19;20192;-78
2024/01/26 06:03:50;;;;;;;24.37;14.20;;;12.20;99.90;;;;;;7286310;19;20189;-78
2024/01/26 06:06:16;;;;;;;27.10;14.63;;;12.10;99.90;;;;;;7307716;19;20193;-79
2024/01/26 06:08:42;;;;;;;25.27;14.73;;;12.00;99.90;;;;;;7284200;19;20185;-78
2024/01/26 06:11:09;;;;;;;20.87;13.50;;;12.10;99.90;;;;;;7284147;19;20656;-78
2024/01/26 06:13:35;;;;;;;26.43;14.53;;;12.10;99.90;;;;;;7284984;19;20197;-79
2024/01/26 06:16:01;;;;;;;24.97;14.03;;;12.10;99.90;;;;;;7284817;19;20540;-78
2024/01/26 06:18:26;;;;;;;25.07;14.70;;;12.20;99.90;;;;;;7283609;19;20193;-77
2024/01/26 06:20:52;;;;;;;26.33;13.43;;;12.10;99.90;;;;;;7282204;19;20200;-78
2024/01/26 06:23:18;;;;;;;24.63;12.53;;;12.10;99.90;;;;;;7285164;19;20191;-77
2024/01/26 06:25:43;;;;;;;19.87;12.23;;;12.20;99.90;;;;;;7305870;19;20204;-79
2024/01/26 06:28:09;;;;;;;22.87;11.60;;;12.20;99.90;;;;;;7284457;19;20193;-78
2024/01/26 06:30:35;;;;;;;23.40;11.70;;;12.30;99.90;;;;;;7283964;19;20216;-79
2024/01/26 06:33:00;;;;;;;20.97;10.43;;;12.30;99.90;;;;;;7282771;19;20199;-77
2024/01/26 06:35:26;;;;;;;19.03;9.80;;;12.30;99.90;;;;;;7281337;19;20962;-77
2024/01/26 06:37:52;;;;;;;15.93;8.83;;;12.30;99.90;;;;;;7281484;19;20188;-77
2024/01/26 06:40:18;;;;;;;18.10;9.70;;;12.30;99.90;;;;;;7286278;19;20214;-78
2024/01/26 06:42:44;;;;;;;16.63;8.63;;;12.30;99.90;;;;;;7305646;19;20252;-78
2024/01/26 06:45:10;;;;;;;19.30;9.53;;;12.30;99.90;;;;;;7282037;19;20788;-77
2024/01/26 06:47:36;;;;;;;16.47;9.00;;;12.30;99.90;;;;;;7282889;19;20495;-78
2024/01/26 06:50:03;;;;;;;17.80;9.07;;;12.30;99.90;;;;;;7283347;19;20190;-77
2024/01/26 06:52:29;;;;;;;14.70;8.17;;;12.30;99.90;;;;;;7282483;19;20185;-78
2024/01/26 06:54:55;;;;;;;17.73;9.77;;;12.40;99.90;;;;;;7282830;19;20213;-79
2024/01/26 06:57:21;;;;;;;15.07;8.43;;;12.30;99.90;;;;;;7282733;19;20192;-79
2024/01/26 06:59:46;;;;;;;14.33;8.13;;;12.30;99.90;;;;;;7301119;19;20267;-79
2024/01/26 07:02:12;;;;;;;16.30;8.50;;;12.40;99.90;;;;;;7294489;19;20196;-79
2024/01/26 07:04:38;;;;;;;16.53;8.50;;;12.40;99.90;;;;;;7283329;19;20214;-79
2024/01/26 07:07:03;;;;;;;17.47;8.83;;;12.50;99.90;;;;;;7283171;19;20193;-79
2024/01/26 07:09:29;;;;;;;15.67;8.27;;;12.50;99.90;;;;;;7281854;19;20195;-79
2024/01/26 07:11:57;;;;;;;16.00;9.33;;;12.50;99.90;;;;;;7281081;19;20567;-78
2024/01/26 07:14:23;;;;;;;17.80;9.40;;;12.50;99.90;;;;;;7282507;19;20193;-78
2024/01/26 07:16:49;;;;;;;13.97;8.37;;;12.50;99.90;;;;;;7281281;19;20186;-78
2024/01/26 07:19:15;;;;;;;17.73;8.70;;;12.50;99.90;;;;;;7302231;19;20184;-79
2024/01/26 07:21:41;;;;;;;17.10;8.23;;;12.50;99.90;;;;;;7281118;19;20181;-78
2024/01/26 07:24:08;;;;;;;21.73;8.87;;;12.50;99.90;;;;;;7282376;19;20185;-78
2024/01/26 07:26:33;;;;;;;15.47;8.93;;;12.50;99.90;;;;;;7282104;19;20192;-79
2024/01/26 07:28:59;;;;;;;19.33;8.87;;;12.60;99.90;;;;;;7281824;19;20198;-78
2024/01/26 07:31:25;;;;;;;17.37;9.03;;;12.60;99.90;;;;;;7281885;19;20526;-79
2024/01/26 07:33:50;;;;;;;20.50;9.53;;;12.70;99.90;;;;;;7282826;19;20259;-79
2024/01/26 07:36:16;;;;;;;18.90;8.50;;;12.60;99.90;;;;;;7300597;19;20210;-78
2024/01/26 07:38:42;;;;;;;17.27;9.20;;;12.60;99.90;;;;;;7289663;19;20310;-78
2024/01/26 07:41:08;;;;;;;17.13;8.43;;;12.60;99.90;;;;;;7281056;19;20181;-78
2024/01/26 07:43:34;;;;;;;15.53;8.03;;;12.60;99.90;;;;;;7280686;19;20192;-79
2024/01/26 07:45:59;;;;;;;16.27;8.57;;;12.60;99.90;;;;;;7280953;19;20217;-79
2024/01/26 07:48:25;;;;;;;16.20;7.87;;;12.60;99.90;;;;;;7279993;19;20189;-78
2024/01/26 07:50:51;;;;;;;13.50;7.50;;;12.70;99.90;;;;;;7279947;19;20275;-79
2024/01/26 07:53:17;;;;;;;14.83;7.60;;;12.70;99.90;;;;;;7295144;19;20211;-79
2024/01/26 07:55:43;;;;;;;16.20;7.70;;;12.80;99.90;;;;;;7296850;19;20613;-79
2024/01/26 07:58:08;;;;;;;14.50;7.70;;;12.80;99.90;;;;;;7280658;19;20197;-79
2024/01/26 08:00:34;;;;;;;15.83;8.10;;;12.80;99.90;;;;;;7281618;19;20205;-79
2024/01/26 08:03:00;;;;;;;12.67;7.80;;;12.80;99.90;;;;;;7281500;19;20186;-79
2024/01/26 08:05:25;;;;;;;19.67;8.80;;;12.80;99.90;;;;;;7280916;19;20692;-80
2024/01/26 08:07:52;;;;;;;16.87;7.80;;;12.90;99.90;;;;;;7281708;19;20222;-79
2024/01/26 08:10:17;;;;;;;14.57;8.40;;;12.80;99.90;;;;;;7287914;19;20644;-79
2024/01/26 08:12:45;;;;;;;14.87;8.50;;;12.80;99.90;;;;;;7301751;19;20195;-79
2024/01/26 08:15:11;;;;;;;14.37;8.10;;;12.80;99.90;;;;;;7286689;19;20206;-79
2024/01/26 08:17:37;;;;;;;16.20;7.57;;;12.80;99.90;;;;;;7285798;19;20258;-79
2024/01/26 08:20:03;;;;;;;16.37;8.10;;;12.80;99.90;;;;;;7286645;19;20185;-79
2024/01/26 08:22:30;;;;;;;17.73;8.40;;;12.70;99.90;;;;;;7287739;19;20636;-79
2024/01/26 08:25:00;;;;;;;16.80;8.10;;;12.80;99.90;;;;;;7288257;19;20182;-79
2024/01/26 08:27:26;;;;;;;17.87;8.03;;;12.80;99.90;;;;;;7285479;19;20204;-79
2024/01/26 08:29:52;;;;;;;16.50;7.33;;;12.80;99.90;;;;;;7285022;19;20234;-79
2024/01/26 08:32:20;;;;;;;16.13;6.97;;;12.70;99.90;;;;;;7284236;19;20734;-79
2024/01/26 08:34:46;;;;;;;13.20;6.60;;;12.70;99.90;;;;;;7307180;19;20201;-80
2024/01/26 08:37:12;;;;;;;14.83;6.47;;;12.70;99.90;;;;;;7285429;19;20600;-79
2024/01/26 08:39:38;;;;;;;12.00;5.73;;;12.80;99.90;;;;;;7283757;19;20178;-79
2024/01/26 08:42:04;;;;;;;13.60;6.87;;;12.70;99.90;;;;;;7286899;19;20196;-79
2024/01/26 08:44:32;;;;;;;18.47;7.60;;;12.60;99.90;;;;;;7286193;19;20193;-79
2024/01/26 08:46:58;;;;;;;16.40;7.43;;;12.60;99.90;;;;;;7284397;19;20196;-80
2024/01/26 08:49:24;;;;;;;16.57;7.17;;;12.70;99.90;;;;;;7284475;19;20322;-79
2024/01/26 08:51:51;;;;;;;14.70;6.83;;;12.70;99.90;;;;;;7283748;19;20190;-79
2024/01/26 08:54:17;;;;;;;14.30;7.17;;;12.80;99.90;;;;;;7301830;19;20208;-79
2024/01/26 08:56:43;;;;;;;13.90;7.50;;;12.80;99.90;;;;;;7300913;19;20185;-78
2024/01/26 08:59:09;;;;;;;18.33;7.63;;;12.80;99.90;;;;;;7285386;19;20220;-79
2024/01/26 09:01:36;;;;;;;17.60;7.20;;;12.80;99.90;;;;;;7286590;19;20199;-79
2024/01/26 09:04:05;;;;;;;15.13;6.57;;;12.90;99.90;;;;;;7285836;19;20193;-78
2024/01/26 09:06:32;;;;;;;14.83;7.13;;;12.80;99.90;;;;;;7286208;19;20217;-79
2024/01/26 09:08:58;;;;;;;16.60;6.90;;;12.90;99.90;;;;;;7285772;19;20591;-78
2024/01/26 09:11:24;;;;;;;15.37;6.90;;;12.80;99.90;;;;;;7286771;19;20216;-78
2024/01/26 09:13:49;;;;;;;16.07;7.17;;;12.90;99.90;;;;;;7285555;19;20185;-79
2024/01/26 09:16:15;;;;;;;17.73;6.13;;;12.90;99.90;;;;;;7309052;19;20189;-79
2024/01/26 09:18:41;;;;;;;14.73;6.17;;;12.90;99.90;;;;;;7285812;19;20317;-79
2024/01/26 09:21:12;;;;;;;15.90;5.60;;;13.00;99.90;;;;;;7287027;19;20195;-79
2024/01/26 09:23:39;;;;;;;12.43;4.77;;;13.00;99.90;;;;;;7285823;19;20191;-80
2024/01/26 09:26:05;;;;;;;11.87;5.03;;;12.90;99.90;;;;;;7281971;19;20261;-79
2024/01/26 09:28:30;;;;;;;8.13;3.70;;;12.80;99.90;;;;;;7286495;19;20192;-79
2024/01/26 09:30:56;;;;;;;11.27;2.90;;;12.70;99.90;;;;;;7285126;19;20181;-79
2024/01/26 09:33:22;;;;;;;9.33;2.43;;;12.70;99.90;;;;;;7285645;19;20217;-79
2024/01/26 09:35:48;;;;;;;9.73;2.37;;;12.60;99.90;;;;;;7294133;19;20181;-80
2024/01/26 09:38:14;;;;;;;8.90;1.90;;;12.60;99.90;;;;;;7306991;19;20224;-79
2024/01/26 09:40:42;;;;;;;9.23;1.90;;;12.40;99.90;;;;;;7285162;19;20188;-79
2024/01/26 09:43:08;;;;;;;10.63;1.90;;;12.40;99.90;;;;;;7286157;19;20186;-79
2024/01/26 09:45:34;;;;;;;8.13;2.00;;;12.40;99.90;;;;;;7284707;19;20201;-79
2024/01/26 09:48:05;;;;;;;8.50;2.17;;;12.50;99.90;;;;;;7286142;19;20260;-80
2024/01/26 09:50:32;;;;;;;13.33;2.70;;;12.70;99.90;;;;;;7283465;19;20200;-79
2024/01/26 09:52:58;;;;;;;13.67;2.87;;;12.80;99.90;;;;;;7284028;19;20199;-78
2024/01/26 09:55:24;;;;;;;13.07;4.20;;;13.00;99.90;;;;;;7285220;19;20208;-78
2024/01/26 09:57:51;;;;;;;12.00;2.73;;;13.30;99.90;;;;;;7283820;19;20200;-78
2024/01/26 10:00:17;;;;;;;15.13;3.60;;;13.30;99.90;;;;;;7301242;19;20711;-78
2024/01/26 10:02:44;;;;;;;12.13;2.63;;;13.10;99.90;;;;;;7299193;19;20197;-79
2024/01/26 10:05:12;;;;;;;16.80;3.10;;;13.10;99.90;;;;;;7283237;19;20643;-78
2024/01/26 10:07:37;;;;;;;17.60;3.80;;;13.10;99.90;;;;;;7285683;19;20198;-78
2024/01/26 10:10:05;;;;;;;13.33;2.87;;;13.00;99.90;;;;;;7284268;19;20193;-78
2024/01/26 10:12:30;;;;;;;15.87;2.70;;;13.10;99.90;;;;;;7283254;19;20266;-78
2024/01/26 10:15:04;;;;;;;14.00;2.50;;;12.90;99.90;;;;;;7285219;19;20723;-78
2024/01/26 10:17:30;;;;;;;14.67;3.00;;;12.70;99.90;;;;;;7282935;19;20189;-79
2024/01/26 10:20:13;;;;;;;14.57;2.90;;;12.40;99.90;;;;;;7285365;19;20652;-78
2024/01/26 10:22:40;;;;;;;19.40;3.10;;;12.20;99.90;;;;;;7283447;19;20598;-79
2024/01/26 10:25:06;;;;;;;22.00;3.47;;;12.10;99.90;;;;;;7283142;19;20196;-79
2024/01/26 10:27:34;;;;;;;14.23;2.77;;;12.00;99.90;;;;;;7283244;19;20202;-78
2024/01/26 10:30:00;;;;;;;13.73;2.87;;;12.00;99.90;;;;;;7283593;19;20203;-79
2024/01/26 10:32:28;;;;;;;16.53;3.00;;;12.20;99.90;;;;;;7284017;19;20804;-79
2024/01/26 10:35:01;;;;;;;11.00;2.00;;;12.30;99.90;;;;;;7283995;19;20193;-78
2024/01/26 10:37:30;;;;;;;11.47;2.27;;;12.30;99.90;;;;;;7282028;19;20240;-78
2024/01/26 10:39:57;;;;;;;11.00;1.80;;;12.00;99.90;;;;;;7283326;19;20200;-79
2024/01/26 10:42:23;;;;;;;6.97;1.40;;;12.00;99.90;;;;;;7284295;19;20205;-78
2024/01/26 10:44:54;;;;;;;8.00;1.30;;;12.50;99.90;;;;;;7283841;19;20186;-78
2024/01/26 10:47:21;;;;;;;5.10;1.00;;;13.30;99.90;;;;;;7284340;19;20206;-79
2024/01/26 10:49:51;;;;;;;8.33;0.90;;;14.20;99.90;;;;;;7300474;19;20187;-78
2024/01/26 10:52:19;;;;;;;5.23;0.80;;;14.60;99.90;;;;;;7306344;19;20253;-79
2024/01/26 10:54:47;;;;;;;5.97;0.90;;;14.90;99.90;;;;;;7284496;19;20301;-79
2024/01/26 10:57:17;;;;;;;5.07;1.20;;;15.10;99.90;;;;;;7284644;19;20223;-79
2024/01/26 10:59:44;;;;;;;8.33;1.30;;;15.80;99.90;;;;;;7282833;19;20547;-78
2024/01/26 11:02:41;;;;;;;6.87;1.70;;;15.70;99.90;;;;;;7282756;19;20189;-80
2024/01/26 11:05:10;;;;;;;4.77;1.63;;;15.90;99.90;;;;;;7181887;19;2004399;-79
2024/01/26 11:07:37;;;;;;;7.83;2.80;;;16.90;99.90;;;;;;7283861;19;20200;-77
2024/01/26 11:10:05;;;;;;;6.73;1.50;;;17.10;99.90;;;;;;7293515;19;20192;-77
2024/01/26 11:12:34;;;;;;;4.77;1.43;;;16.90;99.90;;;;;;7298702;19;20183;-78
2024/01/26 11:15:06;;;;;;;6.30;1.63;;;16.50;99.90;;;;;;7295536;19;20189;-78
2024/01/26 11:17:53;;;;;;;8.90;2.00;;;15.20;99.90;;;;;;7295518;19;20214;-79
2024/01/26 11:20:34;;;;;;;4.27;0.90;;;14.40;99.90;;;;;;7260651;19;20191;-79
2024/01/26 11:23:14;;;;;;;9.73;1.40;;;14.00;99.90;;;;;;7281757;19;20185;-78
2024/01/26 11:25:49;;;;;;;8.77;1.40;;;13.40;99.90;;;;;;7281953;19;20205;-79
2024/01/26 11:28:17;;;;;;;6.80;1.40;;;13.30;99.90;;;;;;7284270;19;20646;-79
2024/01/26 11:30:50;;;;;;;6.67;1.27;;;13.40;99.90;;;;;;7281467;19;20186;-79
2024/01/26 11:33:23;;;;;;;5.60;1.30;;;14.20;99.90;;;;;;7283611;19;20190;-79
2024/01/26 11:35:50;;;;;;;6.77;1.07;;;14.70;99.90;;;;;;7262547;19;20188;-79
2024/01/26 11:38:18;;;;;;;9.50;1.47;;;14.60;99.90;;;;;;7303752;19;20271;-79
2024/01/26 11:40:45;;;;;;;7.20;1.23;;;14.50;99.90;;;;;;7282892;19;20194;-79
2024/01/26 11:43:12;;;;;;;8.07;1.30;;;14.50;99.90;;;;;;7282884;19;20564;-79
2024/01/26 11:45:43;;;;;;;8.37;1.80;;;14.40;99.90;;;;;;7280565;19;20648;-79
2024/01/26 11:48:10;;;;;;;7.07;1.70;;;14.60;99.90;;;;;;7280470;19;20194;-79
2024/01/26 11:50:37;;;;;;;9.60;1.40;;;14.90;99.90;;;;;;7286500;19;20191;-80
2024/01/26 11:53:04;;;;;;;8.83;1.20;;;15.00;99.90;;;;;;7285524;19;20191;-78
2024/01/26 11:55:30;;;;;;;6.13;1.30;;;14.70;99.90;;;;;;7287429;19;20198;-79
2024/01/26 11:57:56;;;;;;;8.47;1.20;;;14.80;99.90;;;;;;7286803;19;20195;-79
2024/01/26 12:00:22;;;;;;;7.13;1.20;;;15.00;99.90;;;;;;7288539;19;20191;-79
2024/01/26 12:02:48;;;;;;;7.03;1.20;;;15.00;99.90;;;;;;7303833;19;20684;-78
2024/01/26 12:05:16;;;;;;;7.10;1.40;;;15.00;99.90;;;;;;7303369;19;20200;-78
2024/01/26 12:07:41;;;;;;;6.40;1.33;;;14.70;99.90;;;;;;7288636;19;20183;-78
2024/01/26 12:10:13;;;;;;;7.53;1.70;;;14.80;99.90;;;;;;7287581;19;20232;-78
2024/01/26 12:12:40;;;;;;;8.93;2.30;;;14.90;99.90;;;;;;7289715;19;20174;-78
2024/01/26 12:15:07;;;;;;;11.00;2.10;;;15.40;99.90;;;;;;7288613;19;20200;-78
2024/01/26 12:17:34;;;;;;;5.87;1.97;;;15.10;99.90;;;;;;7287288;19;20201;-78
2024/01/26 12:20:00;;;;;;;9.53;1.70;;;14.70;99.90;;;;;;7288710;19;20192;-78
2024/01/26 12:22:26;;;;;;;9.63;1.77;;;14.70;99.90;;;;;;7287239;19;20703;-78
2024/01/26 12:24:52;;;;;;;9.47;1.23;;;14.70;99.90;;;;;;7286099;19;20195;-77
2024/01/26 12:27:18;;;;;;;8.67;2.03;;;14.30;99.90;;;;;;7301977;19;20284;-78
2024/01/26 12:29:47;;;;;;;8.83;1.60;;;13.90;99.90;;;;;;7304853;19;20535;-78
2024/01/26 12:32:13;;;;;;;8.93;1.53;;;14.00;99.90;;;;;;7287475;19;20623;-78